Terminal Aerodrome Forecast
Issued by NWS

Home | Current Version | Previous Version | Text Only | Print | Product List | Glossary On
Versions: 1 2 3 4 5 6 7 8 9 10 11 12 13 14 15 16 17
000
FTAK31 PAJN 252335
TAFAJN
TAF
PAJN 252335Z 2600/2624 10004KT P6SM SCT015 OVC045
     FM260300 12004KT P6SM VCSH OVC050
     FM261400 12006KT P6SM -RA OVC035=

USA.gov is the U.S. government's official web portal to all federal, state and local government web resources and services.